Sikinos — 9HA2865 — position and weather

sailwx.info

Track history (hours):
 
Tides and Currents Weather Stations Pressure Air Temp Water Temp Dewpoint Dewpoint Depression Visibility Wind Speed Wind Dir Waves Ship Positions

Sikinos

Last reported at 2017-May-24 17:30 UTC. Time now 2017-May-24 17:32 UTC.
Position N 49°55' W 000°33'.

Length 90 m; draft 5.2 m.

Type: Ship (hazmat cat A). MMSI: 256462000.

Date/timePositionNaut miles runAvg speedWind from/ knotsBaromVisibWave heightAir tempDewpointWater temp
2017-May-24 17:30N 49°55' W 000°33'611.9
2017-May-24 17:00N 50°01' W 000°29'612.4
2017-May-24 16:30N 50°06' W 000°25'612.7
2017-May-24 16:00N 50°12' W 000°21'613.1
2017-May-24 15:31N 50°18' W 000°16'713.2
2017-May-24 15:00N 50°24' W 000°12'612.5
2017-May-24 14:30N 50°27' W 000°04'1413.9
2017-May-24 13:30N 50°31' E 000°17'713.5
2017-May-24 13:00N 50°33' E 000°27'812.8
2017-May-24 12:24N 50°37' E 000°39'512.6
2017-May-24 12:00N 50°39' E 000°45'811.8
2017-May-24 11:20N 50°44' E 000°55'1810.5
2017-May-24 09:40N 50°55' E 001°17'210.0
2017-May-24 09:30N 50°56' E 001°19'510.1
2017-May-24 09:00N 50°59' E 001°24'611.2
2017-May-24 08:30N 51°03' E 001°31'611.5
2017-May-24 08:01N 51°06' E 001°38'612.0
2017-May-24 07:30N 51°03' E 001°46'4 7.3
2017-May-24 07:00N 51°02' E 001°52'4 8.8
2017-May-24 06:30N 51°03' E 001°59'713.3
2017-May-24 06:00N 51°03' E 002°09'713.5
2017-May-24 05:30N 51°04' E 002°20'1 1.5
2017-May-24 05:00N 51°03' E 002°20'1 1.5
2017-May-24 04:30N 51°03' E 002°19'0 0.0
2017-May-24 03:58N 51°03' E 002°19'0 0.0
2017-May-24 03:25N 51°03' E 002°19'0 0.0
2017-May-24 02:55N 51°03' E 002°19'0 0.0
2017-May-24 02:28N 51°03' E 002°19'0 0.0
2017-May-24 01:58N 51°03' E 002°19'0 0.0
2017-May-24 01:28N 51°03' E 002°19'0 0.0
2017-May-24 00:58N 51°03' E 002°19'0 0.0
2017-May-24 00:28N 51°03' E 002°19'0 0.0
2017-May-23 23:58N 51°03' E 002°19'0 0.0
2017-May-23 23:28N 51°03' E 002°19'0 0.0
2017-May-23 22:58N 51°03' E 002°19'0 0.0
2017-May-23 22:25N 51°03' E 002°19'0 0.0
2017-May-23 21:52N 51°03' E 002°19'0 0.0
2017-May-23 21:28N 51°03' E 002°19'0 0.0
2017-May-23 20:58N 51°03' E 002°19'0 0.0
2017-May-23 20:25N 51°03' E 002°19'0 0.0
2017-May-23 19:55N 51°03' E 002°19'0 0.0
2017-May-23 19:28N 51°03' E 002°19'0 0.4
2017-May-23 19:00N 51°03' E 002°19'0 0.4
2017-May-23 18:26N 51°03' E 002°19'0 0.0
2017-May-23 17:59N 51°03' E 002°19'0 0.0
2017-May-23 17:29N 51°03' E 002°19'0 0.0
2017-May-23 16:59N 51°03' E 002°19'0 0.0
2017-May-23 16:29N 51°03' E 002°19'0 0.0
2017-May-23 16:00N 51°03' E 002°19'0 0.0
2017-May-23 15:29N 51°03' E 002°19'0 0.0
2017-May-23 14:59N 51°03' E 002°19'0 0.0
2017-May-23 13:56N 51°03' E 002°19'0 0.1
2017-May-23 13:27N 51°03' E 002°19'1 2.0
2017-May-23 12:50N 51°03' E 002°21'1 1.4
2017-May-23 12:28N 51°04' E 002°21'611.8
2017-May-23 11:57N 51°03' E 002°11'612.9
2017-May-23 11:30N 51°03' E 002°02'713.2
2017-May-23 11:00N 51°02' E 001°51'510.9
2017-May-23 10:31N 51°05' E 001°45'5 9.4
2017-May-23 10:01N 51°09' E 001°40'5 9.6
2017-May-23 09:31N 51°12' E 001°45'510.3
2017-May-23 09:00N 51°17' E 001°49'511.0
2017-May-23 08:31N 51°22' E 001°53'612.0
2017-May-23 08:01N 51°27' E 001°58'713.0
2017-May-23 07:31N 51°33' E 002°03'713.5
2017-May-23 07:01N 51°39' E 002°08'714.0
2017-May-23 06:30N 51°45' E 002°13'713.9
2017-May-23 05:58N 51°52' E 002°18'713.7
2017-May-23 05:29N 51°59' E 002°18'713.6
2017-May-23 04:58N 52°06' E 002°18'3912.2
2017-May-23 01:47N 52°43' E 002°02'310.2
2017-May-23 01:30N 52°45' E 001°59'511.0
2017-May-23 01:00N 52°48' E 001°52'510.3
2017-May-23 00:30N 52°51' E 001°45'5 9.6
2017-May-23 00:00N 52°55' E 001°39'5 9.5
2017-May-22 23:30N 52°58' E 001°33'5 9.4
2017-May-22 23:00N 53°02' E 001°29'5 9.9
2017-May-22 22:30N 53°06' E 001°24'510.0
2017-May-22 22:00N 53°10' E 001°20'510.1
2017-May-22 21:30N 53°15' E 001°16'510.2
2017-May-22 21:00N 53°19' E 001°11'710.1
2017-May-22 20:21N 53°25' E 001°05'4210.7
2017-May-22 16:25N 53°59' E 000°24'511.3
2017-May-22 16:00N 54°02' E 000°19'612.1
2017-May-22 15:30N 54°07' E 000°13'612.4
2017-May-22 15:00N 54°12' E 000°06'1312.5
2017-May-22 14:00N 54°22' W 000°06'612.4
2017-May-22 13:30N 54°26' W 000°15'612.8
2017-May-22 13:00N 54°29' W 000°24'25 2.2
2017-May-22 01:17N 54°41' W 001°02'23 1.1
2017-May-21 04:05N 54°30' W 000°28'112.8
2017-May-21 04:00N 54°30' W 000°27'612.0
2017-May-21 03:30N 54°27' W 000°17'611.7
2017-May-21 03:00N 54°24' W 000°09'611.7
2017-May-21 02:30N 54°20' W 000°03'611.4
2017-May-21 02:00N 54°15' E 000°03'611.2
2017-May-21 01:30N 54°10' E 000°09'611.0
2017-May-21 01:00N 54°06' E 000°14'510.9
2017-May-21 00:30N 54°02' E 000°20'5711.8
2017-May-20 19:42N 53°15' E 001°15'313.3
2017-May-20 19:29N 53°13' E 001°17'612.9
2017-May-20 19:00N 53°07' E 001°23'612.4
2017-May-20 18:30N 53°02' E 001°28'612.3
2017-May-20 18:00N 52°57' E 001°34'611.9
2017-May-20 17:30N 52°53' E 001°41'611.5
2017-May-20 17:00N 52°50' E 001°49'510.9
2017-May-20 16:30N 52°47' E 001°56'510.7
2017-May-20 16:00N 52°44' E 002°04'7011.3
2017-May-20 09:50N 52°06' E 003°40'411.0
2017-May-20 09:30N 52°05' E 003°46'510.6
2017-May-20 09:00N 52°03' E 003°54'4 8.2
2017-May-20 08:30N 52°01' E 003°59'510.0
2017-May-20 08:00N 51°58' E 004°06'3 6.8
2017-May-20 07:30N 51°56' E 004°11'0 0.0
2017-May-20 06:59N 51°56' E 004°11'0 0.0
2017-May-20 06:29N 51°56' E 004°11'0 0.0
2017-May-20 05:59N 51°56' E 004°11'0 0.0
2017-May-20 05:26N 51°56' E 004°11'0 0.0
2017-May-20 04:59N 51°56' E 004°11'0 0.0
2017-May-20 04:29N 51°56' E 004°11'0 0.0
2017-May-20 03:59N 51°56' E 004°11'0 0.0
2017-May-20 03:29N 51°56' E 004°11'0 0.0
2017-May-20 02:59N 51°56' E 004°11'0 0.0
2017-May-20 02:29N 51°56' E 004°11'0 0.0
2017-May-20 01:59N 51°56' E 004°11'0 0.0
2017-May-20 01:29N 51°56' E 004°11'0 0.0
2017-May-20 00:59N 51°56' E 004°11'0 0.0
2017-May-20 00:29N 51°56' E 004°11'0 0.0
2017-May-19 23:56N 51°56' E 004°11'0 0.0
2017-May-19 23:29N 51°56' E 004°11'0 0.0
2017-May-19 22:59N 51°56' E 004°11'0 0.0
2017-May-19 22:29N 51°56' E 004°11'0 0.0
2017-May-19 21:59N 51°56' E 004°11'0 0.0
2017-May-19 21:29N 51°56' E 004°11'0 0.0
2017-May-19 20:59N 51°56' E 004°11'0 0.0
2017-May-19 20:29N 51°56' E 004°11'0 0.0
2017-May-19 19:59N 51°56' E 004°11'0 0.0
2017-May-19 19:29N 51°56' E 004°11'0 0.0
2017-May-19 18:59N 51°56' E 004°11'0 0.0
2017-May-19 18:29N 51°56' E 004°11'0 0.0
2017-May-19 17:56N 51°56' E 004°11'0 0.0
2017-May-19 17:29N 51°56' E 004°11'0 0.0
2017-May-19 16:59N 51°56' E 004°11'0 0.0
2017-May-19 16:29N 51°56' E 004°11'0 0.0
2017-May-19 15:59N 51°56' E 004°11'0 0.0
2017-May-19 15:29N 51°56' E 004°11'0 0.0
2017-May-19 14:59N 51°56' E 004°11'0 0.0
2017-May-19 13:59N 51°56' E 004°11'0 0.0
2017-May-19 13:29N 51°56' E 004°11'0 0.0
2017-May-19 12:59N 51°56' E 004°11'0 0.0
2017-May-19 12:29N 51°56' E 004°11'0 0.0
2017-May-19 11:59N 51°56' E 004°11'0 0.0
2017-May-19 11:29N 51°56' E 004°11'0 0.0
2017-May-19 10:53N 51°56' E 004°11'0 0.0
2017-May-19 10:29N 51°56' E 004°11'0 0.0
2017-May-19 09:59N 51°56' E 004°11'0 0.0
2017-May-19 09:29N 51°56' E 004°11'0 0.0
2017-May-19 08:59N 51°56' E 004°11'0 0.0
2017-May-19 08:26N 51°56' E 004°11'0 0.0
2017-May-19 07:56N 51°56' E 004°11'0 0.0
2017-May-19 07:29N 51°56' E 004°11'0 0.0
2017-May-19 06:59N 51°56' E 004°11'0 0.0
2017-May-19 06:29N 51°56' E 004°11'0 0.0
2017-May-19 05:59N 51°56' E 004°11'0 0.0
2017-May-19 05:26N 51°56' E 004°11'0 0.0
2017-May-19 04:59N 51°56' E 004°11'0 0.0
2017-May-19 04:29N 51°56' E 004°11'0 0.0
2017-May-19 03:59N 51°56' E 004°11'0 0.0
2017-May-19 03:29N 51°56' E 004°11'0 0.0
2017-May-19 02:59N 51°56' E 004°11'0 0.0
2017-May-19 02:29N 51°56' E 004°11'0 0.0
2017-May-19 01:59N 51°56' E 004°11'0 0.0
2017-May-19 01:29N 51°56' E 004°11'0 0.0
2017-May-19 00:59N 51°56' E 004°11'0 0.0
2017-May-19 00:29N 51°56' E 004°11'0 0.0
2017-May-18 23:59N 51°56' E 004°11'0 0.0
2017-May-18 23:20N 51°56' E 004°11'0 0.0
2017-May-18 22:56N 51°56' E 004°11'0 0.0
2017-May-18 22:29N 51°56' E 004°11'0 0.0
2017-May-18 21:59N 51°56' E 004°11'0 0.0
2017-May-18 21:23N 51°56' E 004°11'0 0.0
2017-May-18 20:59N 51°56' E 004°11'0 0.0
2017-May-18 20:29N 51°56' E 004°11'0 0.0
2017-May-18 19:56N 51°56' E 004°11'0 0.0
2017-May-18 19:29N 51°56' E 004°11'0 0.0
2017-May-18 18:59N 51°56' E 004°11'0 0.0
2017-May-18 18:29N 51°56' E 004°11'0 0.0
2017-May-18 17:53N 51°56' E 004°11'0 0.0
2017-May-18 17:29N 51°56' E 004°11'0 0.0
2017-May-18 16:59N 51°56' E 004°11'0 0.0
2017-May-18 16:26N 51°56' E 004°11'0 0.0
2017-May-18 15:59N 51°56' E 004°11'0 0.0
2017-May-18 15:29N 51°56' E 004°11'0 0.0
2017-May-18 14:56N 51°56' E 004°11'0 0.0
2017-May-18 14:00N 51°56' E 004°11'3 5.5
2017-May-18 13:30N 51°58' E 004°07'5 9.7
2017-May-18 13:00N 51°60' E 004°00'5 9.2
2017-May-18 12:30N 51°59' E 003°53'4 7.0
2017-May-18 12:00N 51°60' E 003°47'4 7.2
2017-May-18 11:30N 51°58' E 003°42'4 7.5
2017-May-18 11:00N 51°57' E 003°36'5112.0
2017-May-18 06:46N 51°35' E 002°22'813.7
2017-May-18 06:11N 51°29' E 002°14'313.9
2017-May-18 06:00N 51°26' E 002°12'713.6
2017-May-18 05:30N 51°20' E 002°08'713.9
2017-May-18 05:01N 51°14' E 002°03'714.2
2017-May-18 04:31N 51°10' E 001°53'714.4
2017-May-18 04:00N 51°06' E 001°44'714.9
2017-May-18 03:30N 51°01' E 001°36'714.8
2017-May-18 03:00N 50°55' E 001°28'6912.8
2017-May-17 21:38N 50°02' E 000°18'112.2
2017-May-17 21:30N 50°01' E 000°16'612.0
2017-May-17 21:00N 49°57' E 000°09'611.9
2017-May-17 20:30N 49°53' E 000°03'611.8
2017-May-17 20:00N 49°49' W 000°04'611.5
2017-May-17 19:30N 49°45' W 000°10'612.5
2017-May-17 19:00N 49°39' W 000°06'612.7
2017-May-17 18:30N 49°34' W 000°02'510.8
2017-May-17 18:00N 49°30' E 000°03'3 5.3
2017-May-17 17:30N 49°29' E 000°07'0 0.0
2017-May-17 17:00N 49°29' E 000°07'0 0.0
2017-May-17 16:30N 49°29' E 000°07'0 0.0
2017-May-17 16:00N 49°29' E 000°07'0 0.0
2017-May-17 15:30N 49°29' E 000°07'0 0.0
2017-May-17 15:00N 49°29' E 000°07'0 0.0
2017-May-17 14:30N 49°29' E 000°07'0 0.0
2017-May-17 13:30N 49°29' E 000°07'0 0.0
2017-May-17 13:00N 49°29' E 000°07'0 0.0
2017-May-17 12:30N 49°29' E 000°07'0 0.4
2017-May-17 12:00N 49°29' E 000°07'510.5
2017-May-17 11:30N 49°30' W 000°01'5 9.9
2017-May-17 11:01N 49°32' W 000°08'510.6
2017-May-17 10:30N 49°37' W 000°08'612.7
2017-May-17 10:00N 49°44' W 000°10'612.9
2017-May-17 09:30N 49°49' W 000°14'612.6
2017-May-17 09:00N 49°55' W 000°19'612.4
2017-May-17 08:30N 49°60' W 000°24'612.1
2017-May-17 08:00N 50°05' W 000°29'611.8
2017-May-17 07:30N 50°10' W 000°34'2112.0
2017-May-17 05:44N 50°30' W 000°47'311.8
2017-May-17 05:30N 50°32' W 000°50'811.8
2017-May-17 04:51N 50°39' W 000°56'411.7
2017-May-17 04:30N 50°42' W 000°59'5 9.4
2017-May-17 04:00N 50°44' W 001°05'5 9.5
2017-May-17 03:30N 50°47' W 001°12'5 9.7
2017-May-17 03:00N 50°49' W 001°18'510.2
2017-May-17 02:30N 50°53' W 001°24'1 2.0
2017-May-17 02:00N 50°54' W 001°25'0 0.0
2017-May-17 01:08N 50°54' W 001°25'0 0.0
2017-May-17 00:59N 50°54' W 001°25'0 0.0
2017-May-17 00:26N 50°54' W 001°25'0 0.0
2017-May-16 17:48N 50°54' W 001°25'0 0.8
2017-May-16 17:30N 50°54' W 001°25'4 7.2
2017-May-16 17:00N 50°51' W 001°21'5 9.1
2017-May-16 16:30N 50°48' W 001°16'611.9
2017-May-16 16:00N 50°45' W 001°08'3 6.8
2017-May-16 15:30N 50°43' W 001°04'0 0.1
2017-May-16 14:53N 50°43' W 001°04'0 0.1
2017-May-16 13:59N 50°43' W 001°04'0 0.1
2017-May-16 13:29N 50°43' W 001°04'0 0.2
2017-May-16 13:00N 50°43' W 001°04'4 7.4
2017-May-16 12:30N 50°42' W 000°58'612.3
2017-May-16 12:00N 50°37' W 000°53'40 9.7
2017-May-16 07:55N 50°02' W 000°24'4 9.6
2017-May-16 07:30N 49°58' W 000°21'5 9.7
2017-May-16 07:00N 49°54' W 000°18'5 9.9
2017-May-16 06:30N 49°49' W 000°14'510.0
2017-May-16 06:00N 49°45' W 000°11'510.1
2017-May-16 05:30N 49°41' W 000°07'510.0
2017-May-16 05:00N 49°36' W 000°06'5 9.7
2017-May-16 04:30N 49°31' W 000°06'3 6.0
2017-May-16 03:58N 49°29' W 000°02'0 0.0
2017-May-16 03:28N 49°30' W 000°02'0 0.0
2017-May-16 02:58N 49°30' W 000°02'0 0.0
2017-May-16 02:28N 49°30' W 000°02'0 0.0
2017-May-16 01:58N 49°30' W 000°02'0 0.0
2017-May-16 01:28N 49°30' W 000°01'0 0.0
2017-May-16 00:58N 49°30' W 000°01'0 0.0
2017-May-16 00:28N 49°30' W 000°01'0 0.0
2017-May-15 23:58N 49°30' W 000°01'0 0.0
2017-May-15 23:28N 49°30' W 000°01'0 0.0
2017-May-15 22:58N 49°29' W 000°01'0 0.0
2017-May-15 22:28N 49°29' W 000°01'0 0.0
2017-May-15 21:58N 49°29' W 000°01'0 0.0
2017-May-15 21:28N 49°29' W 000°01'0 0.2
2017-May-15 20:58N 49°29' W 000°02'0 0.1
2017-May-15 20:28N 49°29' W 000°02'0 0.0
2017-May-15 19:58N 49°29' W 000°02'0 0.0
2017-May-15 19:28N 49°29' W 000°02'0 0.0
2017-May-15 18:58N 49°29' W 000°02'0 0.0
2017-May-15 18:28N 49°29' W 000°02'0 0.0
2017-May-15 17:58N 49°29' W 000°02'0 0.0
2017-May-15 17:28N 49°29' W 000°02'0 0.1
2017-May-15 16:58N 49°29' W 000°02'0 0.0
2017-May-15 16:28N 49°29' W 000°02'0 0.0
2017-May-15 15:58N 49°30' W 000°02'0 0.0
2017-May-15 15:28N 49°30' W 000°02'0 0.0
2017-May-15 14:58N 49°30' W 000°02'0 0.0
2017-May-15 14:28N 49°30' W 000°02'0 0.0
2017-May-15 13:28N 49°30' W 000°01'1 1.6
2017-May-15 13:00N 49°29' W 000°00'5 9.2
2017-May-15 12:30N 49°28' E 000°06'2 4.7
2017-May-15 11:59N 49°27' E 000°10'0 0.0
2017-May-15 11:29N 49°27' E 000°10'0 0.0
2017-May-15 10:59N 49°27' E 000°10'0 0.0
2017-May-15 10:29N 49°27' E 000°10'0 0.0
2017-May-15 09:59N 49°27' E 000°10'0 0.0
2017-May-15 09:26N 49°27' E 000°10'0 0.0
2017-May-15 08:59N 49°27' E 000°10'0 0.0
2017-May-15 08:29N 49°27' E 000°10'0 0.0
2017-May-15 07:59N 49°27' E 000°10'0 0.0
2017-May-15 07:29N 49°27' E 000°10'0 0.0
2017-May-15 06:59N 49°27' E 000°10'0 0.0
2017-May-15 06:29N 49°27' E 000°10'0 0.0
2017-May-15 05:59N 49°27' E 000°10'0 0.0
2017-May-15 05:29N 49°27' E 000°10'0 0.0
2017-May-15 04:59N 49°27' E 000°10'0 0.0
2017-May-15 04:29N 49°27' E 000°10'0 0.0
2017-May-15 03:59N 49°27' E 000°10'0 0.0
2017-May-15 03:29N 49°27' E 000°10'0 0.0
2017-May-15 02:59N 49°27' E 000°10'0 0.0
2017-May-15 02:30N 49°27' E 000°10'1 2.1
2017-May-15 02:00N 49°28' E 000°08'5 9.6
2017-May-15 01:30N 49°30' E 000°02'3 6.3
2017-May-15 01:00N 49°30' W 000°03'0 0.1
2017-May-15 00:28N 49°30' W 000°03'0 0.0
2017-May-14 23:58N 49°30' W 000°03'0 0.0
2017-May-14 23:28N 49°30' W 000°03'0 0.0
2017-May-14 22:58N 49°30' W 000°03'0 0.0
2017-May-14 22:28N 49°30' W 000°03'0 0.0
2017-May-14 21:55N 49°30' W 000°03'0 0.0
2017-May-14 21:28N 49°29' W 000°03'0 0.0
2017-May-14 20:58N 49°29' W 000°03'0 0.0
2017-May-14 20:28N 49°29' W 000°03'0 0.1
2017-May-14 19:58N 49°29' W 000°03'0 0.1
2017-May-14 19:28N 49°29' W 000°03'0 0.0
2017-May-14 18:55N 49°29' W 000°03'0 0.0
2017-May-14 18:28N 49°29' W 000°03'0 0.0
2017-May-14 17:58N 49°29' W 000°03'  
Track history (hours):
 
Tides and Currents Weather Stations Pressure Air Temp Water Temp Dewpoint Dewpoint Depression Visibility Wind Speed Wind Dir Waves Ship Positions

Sikinos

Last reported at 2017-May-24 17:30 UTC. Time now 2017-May-24 17:32 UTC.
Position N 49°55' W 000°33'.

Length 90 m; draft 5.2 m.

Type: Ship (hazmat cat A). MMSI: 256462000.

Date/timePositionNaut miles runAvg speedWind from/ knotsBaromVisibWave heightAir tempDewpointWater temp
2017-May-24 17:30N 49°55' W 000°33'611.9
2017-May-24 17:00N 50°01' W 000°29'612.4
2017-May-24 16:30N 50°06' W 000°25'612.7
2017-May-24 16:00N 50°12' W 000°21'613.1
2017-May-24 15:31N 50°18' W 000°16'713.2
2017-May-24 15:00N 50°24' W 000°12'612.5
2017-May-24 14:30N 50°27' W 000°04'1413.9
2017-May-24 13:30N 50°31' E 000°17'713.5
2017-May-24 13:00N 50°33' E 000°27'812.8
2017-May-24 12:24N 50°37' E 000°39'512.6
2017-May-24 12:00N 50°39' E 000°45'811.8
2017-May-24 11:20N 50°44' E 000°55'1810.5
2017-May-24 09:40N 50°55' E 001°17'210.0
2017-May-24 09:30N 50°56' E 001°19'510.1
2017-May-24 09:00N 50°59' E 001°24'611.2
2017-May-24 08:30N 51°03' E 001°31'611.5
2017-May-24 08:01N 51°06' E 001°38'612.0
2017-May-24 07:30N 51°03' E 001°46'4 7.3
2017-May-24 07:00N 51°02' E 001°52'4 8.8
2017-May-24 06:30N 51°03' E 001°59'713.3
2017-May-24 06:00N 51°03' E 002°09'713.5
2017-May-24 05:30N 51°04' E 002°20'1 1.5
2017-May-24 05:00N 51°03' E 002°20'1 1.5
2017-May-24 04:30N 51°03' E 002°19'0 0.0
2017-May-24 03:58N 51°03' E 002°19'0 0.0
2017-May-24 03:25N 51°03' E 002°19'0 0.0
2017-May-24 02:55N 51°03' E 002°19'0 0.0
2017-May-24 02:28N 51°03' E 002°19'0 0.0
2017-May-24 01:58N 51°03' E 002°19'0 0.0
2017-May-24 01:28N 51°03' E 002°19'0 0.0
2017-May-24 00:58N 51°03' E 002°19'0 0.0
2017-May-24 00:28N 51°03' E 002°19'0 0.0
2017-May-23 23:58N 51°03' E 002°19'0 0.0
2017-May-23 23:28N 51°03' E 002°19'0 0.0
2017-May-23 22:58N 51°03' E 002°19'0 0.0
2017-May-23 22:25N 51°03' E 002°19'0 0.0
2017-May-23 21:52N 51°03' E 002°19'0 0.0
2017-May-23 21:28N 51°03' E 002°19'0 0.0
2017-May-23 20:58N 51°03' E 002°19'0 0.0
2017-May-23 20:25N 51°03' E 002°19'0 0.0
2017-May-23 19:55N 51°03' E 002°19'0 0.0
2017-May-23 19:28N 51°03' E 002°19'0 0.4
2017-May-23 19:00N 51°03' E 002°19'0 0.4
2017-May-23 18:26N 51°03' E 002°19'0 0.0
2017-May-23 17:59N 51°03' E 002°19'0 0.0
2017-May-23 17:29N 51°03' E 002°19'0 0.0
2017-May-23 16:59N 51°03' E 002°19'0 0.0
2017-May-23 16:29N 51°03' E 002°19'0 0.0
2017-May-23 16:00N 51°03' E 002°19'0 0.0
2017-May-23 15:29N 51°03' E 002°19'0 0.0
2017-May-23 14:59N 51°03' E 002°19'0 0.0
2017-May-23 13:56N 51°03' E 002°19'0 0.1
2017-May-23 13:27N 51°03' E 002°19'1 2.0
2017-May-23 12:50N 51°03' E 002°21'1 1.4
2017-May-23 12:28N 51°04' E 002°21'611.8
2017-May-23 11:57N 51°03' E 002°11'612.9
2017-May-23 11:30N 51°03' E 002°02'713.2
2017-May-23 11:00N 51°02' E 001°51'510.9
2017-May-23 10:31N 51°05' E 001°45'5 9.4
2017-May-23 10:01N 51°09' E 001°40'5 9.6
2017-May-23 09:31N 51°12' E 001°45'510.3
2017-May-23 09:00N 51°17' E 001°49'511.0
2017-May-23 08:31N 51°22' E 001°53'612.0
2017-May-23 08:01N 51°27' E 001°58'713.0
2017-May-23 07:31N 51°33' E 002°03'713.5
2017-May-23 07:01N 51°39' E 002°08'714.0
2017-May-23 06:30N 51°45' E 002°13'713.9
2017-May-23 05:58N 51°52' E 002°18'713.7
2017-May-23 05:29N 51°59' E 002°18'713.6
2017-May-23 04:58N 52°06' E 002°18'3912.2
2017-May-23 01:47N 52°43' E 002°02'310.2
2017-May-23 01:30N 52°45' E 001°59'511.0
2017-May-23 01:00N 52°48' E 001°52'510.3
2017-May-23 00:30N 52°51' E 001°45'5 9.6
2017-May-23 00:00N 52°55' E 001°39'5 9.5
2017-May-22 23:30N 52°58' E 001°33'5 9.4
2017-May-22 23:00N 53°02' E 001°29'5 9.9
2017-May-22 22:30N 53°06' E 001°24'510.0
2017-May-22 22:00N 53°10' E 001°20'510.1
2017-May-22 21:30N 53°15' E 001°16'510.2
2017-May-22 21:00N 53°19' E 001°11'710.1
2017-May-22 20:21N 53°25' E 001°05'4210.7
2017-May-22 16:25N 53°59' E 000°24'511.3
2017-May-22 16:00N 54°02' E 000°19'612.1
2017-May-22 15:30N 54°07' E 000°13'612.4
2017-May-22 15:00N 54°12' E 000°06'1312.5
2017-May-22 14:00N 54°22' W 000°06'612.4
2017-May-22 13:30N 54°26' W 000°15'612.8
2017-May-22 13:00N 54°29' W 000°24'25 2.2
2017-May-22 01:17N 54°41' W 001°02'23 1.1
2017-May-21 04:05N 54°30' W 000°28'112.8
2017-May-21 04:00N 54°30' W 000°27'612.0
2017-May-21 03:30N 54°27' W 000°17'611.7
2017-May-21 03:00N 54°24' W 000°09'611.7
2017-May-21 02:30N 54°20' W 000°03'611.4
2017-May-21 02:00N 54°15' E 000°03'611.2
2017-May-21 01:30N 54°10' E 000°09'611.0
2017-May-21 01:00N 54°06' E 000°14'510.9
2017-May-21 00:30N 54°02' E 000°20'5711.8
2017-May-20 19:42N 53°15' E 001°15'313.3
2017-May-20 19:29N 53°13' E 001°17'612.9
2017-May-20 19:00N 53°07' E 001°23'612.4
2017-May-20 18:30N 53°02' E 001°28'612.3
2017-May-20 18:00N 52°57' E 001°34'611.9
2017-May-20 17:30N 52°53' E 001°41'611.5
2017-May-20 17:00N 52°50' E 001°49'510.9
2017-May-20 16:30N 52°47' E 001°56'510.7
2017-May-20 16:00N 52°44' E 002°04'7011.3
2017-May-20 09:50N 52°06' E 003°40'411.0
2017-May-20 09:30N 52°05' E 003°46'510.6
2017-May-20 09:00N 52°03' E 003°54'4 8.2
2017-May-20 08:30N 52°01' E 003°59'510.0
2017-May-20 08:00N 51°58' E 004°06'3 6.8
2017-May-20 07:30N 51°56' E 004°11'0 0.0
2017-May-20 06:59N 51°56' E 004°11'0 0.0
2017-May-20 06:29N 51°56' E 004°11'0 0.0
2017-May-20 05:59N 51°56' E 004°11'0 0.0
2017-May-20 05:26N 51°56' E 004°11'0 0.0
2017-May-20 04:59N 51°56' E 004°11'0 0.0
2017-May-20 04:29N 51°56' E 004°11'0 0.0
2017-May-20 03:59N 51°56' E 004°11'0 0.0
2017-May-20 03:29N 51°56' E 004°11'0 0.0
2017-May-20 02:59N 51°56' E 004°11'0 0.0
2017-May-20 02:29N 51°56' E 004°11'0 0.0
2017-May-20 01:59N 51°56' E 004°11'0 0.0
2017-May-20 01:29N 51°56' E 004°11'0 0.0
2017-May-20 00:59N 51°56' E 004°11'0 0.0
2017-May-20 00:29N 51°56' E 004°11'0 0.0
2017-May-19 23:56N 51°56' E 004°11'0 0.0
2017-May-19 23:29N 51°56' E 004°11'0 0.0
2017-May-19 22:59N 51°56' E 004°11'0 0.0
2017-May-19 22:29N 51°56' E 004°11'0 0.0
2017-May-19 21:59N 51°56' E 004°11'0 0.0
2017-May-19 21:29N 51°56' E 004°11'0 0.0
2017-May-19 20:59N 51°56' E 004°11'0 0.0
2017-May-19 20:29N 51°56' E 004°11'0 0.0
2017-May-19 19:59N 51°56' E 004°11'0 0.0
2017-May-19 19:29N 51°56' E 004°11'0 0.0
2017-May-19 18:59N 51°56' E 004°11'0 0.0
2017-May-19 18:29N 51°56' E 004°11'0 0.0
2017-May-19 17:56N 51°56' E 004°11'0 0.0
2017-May-19 17:29N 51°56' E 004°11'0 0.0
2017-May-19 16:59N 51°56' E 004°11'0 0.0
2017-May-19 16:29N 51°56' E 004°11'0 0.0
2017-May-19 15:59N 51°56' E 004°11'0 0.0
2017-May-19 15:29N 51°56' E 004°11'0 0.0
2017-May-19 14:59N 51°56' E 004°11'0 0.0
2017-May-19 13:59N 51°56' E 004°11'0 0.0
2017-May-19 13:29N 51°56' E 004°11'0 0.0
2017-May-19 12:59N 51°56' E 004°11'0 0.0
2017-May-19 12:29N 51°56' E 004°11'0 0.0
2017-May-19 11:59N 51°56' E 004°11'0 0.0
2017-May-19 11:29N 51°56' E 004°11'0 0.0
2017-May-19 10:53N 51°56' E 004°11'0 0.0
2017-May-19 10:29N 51°56' E 004°11'0 0.0
2017-May-19 09:59N 51°56' E 004°11'0 0.0
2017-May-19 09:29N 51°56' E 004°11'0 0.0
2017-May-19 08:59N 51°56' E 004°11'0 0.0
2017-May-19 08:26N 51°56' E 004°11'0 0.0
2017-May-19 07:56N 51°56' E 004°11'0 0.0
2017-May-19 07:29N 51°56' E 004°11'0 0.0
2017-May-19 06:59N 51°56' E 004°11'0 0.0
2017-May-19 06:29N 51°56' E 004°11'0 0.0
2017-May-19 05:59N 51°56' E 004°11'0 0.0
2017-May-19 05:26N 51°56' E 004°11'0 0.0
2017-May-19 04:59N 51°56' E 004°11'0 0.0
2017-May-19 04:29N 51°56' E 004°11'0 0.0
2017-May-19 03:59N 51°56' E 004°11'0 0.0
2017-May-19 03:29N 51°56' E 004°11'0 0.0
2017-May-19 02:59N 51°56' E 004°11'0 0.0
2017-May-19 02:29N 51°56' E 004°11'0 0.0
2017-May-19 01:59N 51°56' E 004°11'0 0.0
2017-May-19 01:29N 51°56' E 004°11'0 0.0
2017-May-19 00:59N 51°56' E 004°11'0 0.0
2017-May-19 00:29N 51°56' E 004°11'0 0.0
2017-May-18 23:59N 51°56' E 004°11'0 0.0
2017-May-18 23:20N 51°56' E 004°11'0 0.0
2017-May-18 22:56N 51°56' E 004°11'0 0.0
2017-May-18 22:29N 51°56' E 004°11'0 0.0
2017-May-18 21:59N 51°56' E 004°11'0 0.0
2017-May-18 21:23N 51°56' E 004°11'0 0.0
2017-May-18 20:59N 51°56' E 004°11'0 0.0
2017-May-18 20:29N 51°56' E 004°11'0 0.0
2017-May-18 19:56N 51°56' E 004°11'0 0.0
2017-May-18 19:29N 51°56' E 004°11'0 0.0
2017-May-18 18:59N 51°56' E 004°11'0 0.0
2017-May-18 18:29N 51°56' E 004°11'0 0.0
2017-May-18 17:53N 51°56' E 004°11'0 0.0
2017-May-18 17:29N 51°56' E 004°11'0 0.0
2017-May-18 16:59N 51°56' E 004°11'0 0.0
2017-May-18 16:26N 51°56' E 004°11'0 0.0
2017-May-18 15:59N 51°56' E 004°11'0 0.0
2017-May-18 15:29N 51°56' E 004°11'0 0.0
2017-May-18 14:56N 51°56' E 004°11'0 0.0
2017-May-18 14:00N 51°56' E 004°11'3 5.5
2017-May-18 13:30N 51°58' E 004°07'5 9.7
2017-May-18 13:00N 51°60' E 004°00'5 9.2
2017-May-18 12:30N 51°59' E 003°53'4 7.0
2017-May-18 12:00N 51°60' E 003°47'4 7.2
2017-May-18 11:30N 51°58' E 003°42'4 7.5
2017-May-18 11:00N 51°57' E 003°36'5112.0
2017-May-18 06:46N 51°35' E 002°22'813.7
2017-May-18 06:11N 51°29' E 002°14'313.9
2017-May-18 06:00N 51°26' E 002°12'713.6
2017-May-18 05:30N 51°20' E 002°08'713.9
2017-May-18 05:01N 51°14' E 002°03'714.2
2017-May-18 04:31N 51°10' E 001°53'714.4
2017-May-18 04:00N 51°06' E 001°44'714.9
2017-May-18 03:30N 51°01' E 001°36'714.8
2017-May-18 03:00N 50°55' E 001°28'6912.8
2017-May-17 21:38N 50°02' E 000°18'112.2
2017-May-17 21:30N 50°01' E 000°16'612.0
2017-May-17 21:00N 49°57' E 000°09'611.9
2017-May-17 20:30N 49°53' E 000°03'611.8
2017-May-17 20:00N 49°49' W 000°04'611.5
2017-May-17 19:30N 49°45' W 000°10'612.5
2017-May-17 19:00N 49°39' W 000°06'612.7
2017-May-17 18:30N 49°34' W 000°02'510.8
2017-May-17 18:00N 49°30' E 000°03'3 5.3
2017-May-17 17:30N 49°29' E 000°07'0 0.0
2017-May-17 17:00N 49°29' E 000°07'0 0.0
2017-May-17 16:30N 49°29' E 000°07'0 0.0
2017-May-17 16:00N 49°29' E 000°07'0 0.0
2017-May-17 15:30N 49°29' E 000°07'0 0.0
2017-May-17 15:00N 49°29' E 000°07'0 0.0
2017-May-17 14:30N 49°29' E 000°07'0 0.0
2017-May-17 13:30N 49°29' E 000°07'0 0.0
2017-May-17 13:00N 49°29' E 000°07'0 0.0
2017-May-17 12:30N 49°29' E 000°07'0 0.4
2017-May-17 12:00N 49°29' E 000°07'510.5
2017-May-17 11:30N 49°30' W 000°01'5 9.9
2017-May-17 11:01N 49°32' W 000°08'510.6
2017-May-17 10:30N 49°37' W 000°08'612.7
2017-May-17 10:00N 49°44' W 000°10'612.9
2017-May-17 09:30N 49°49' W 000°14'612.6
2017-May-17 09:00N 49°55' W 000°19'612.4
2017-May-17 08:30N 49°60' W 000°24'612.1
2017-May-17 08:00N 50°05' W 000°29'611.8
2017-May-17 07:30N 50°10' W 000°34'2112.0
2017-May-17 05:44N 50°30' W 000°47'311.8
2017-May-17 05:30N 50°32' W 000°50'811.8
2017-May-17 04:51N 50°39' W 000°56'411.7
2017-May-17 04:30N 50°42' W 000°59'5 9.4
2017-May-17 04:00N 50°44' W 001°05'5 9.5
2017-May-17 03:30N 50°47' W 001°12'5 9.7
2017-May-17 03:00N 50°49' W 001°18'510.2
2017-May-17 02:30N 50°53' W 001°24'1 2.0
2017-May-17 02:00N 50°54' W 001°25'0 0.0
2017-May-17 01:08N 50°54' W 001°25'0 0.0
2017-May-17 00:59N 50°54' W 001°25'0 0.0
2017-May-17 00:26N 50°54' W 001°25'0 0.0
2017-May-16 17:48N 50°54' W 001°25'0 0.8
2017-May-16 17:30N 50°54' W 001°25'4 7.2
2017-May-16 17:00N 50°51' W 001°21'5 9.1
2017-May-16 16:30N 50°48' W 001°16'611.9
2017-May-16 16:00N 50°45' W 001°08'3 6.8
2017-May-16 15:30N 50°43' W 001°04'0 0.1
2017-May-16 14:53N 50°43' W 001°04'0 0.1
2017-May-16 13:59N 50°43' W 001°04'0 0.1
2017-May-16 13:29N 50°43' W 001°04'0 0.2
2017-May-16 13:00N 50°43' W 001°04'4 7.4
2017-May-16 12:30N 50°42' W 000°58'612.3
2017-May-16 12:00N 50°37' W 000°53'40 9.7
2017-May-16 07:55N 50°02' W 000°24'4 9.6
2017-May-16 07:30N 49°58' W 000°21'5 9.7
2017-May-16 07:00N 49°54' W 000°18'5 9.9
2017-May-16 06:30N 49°49' W 000°14'510.0
2017-May-16 06:00N 49°45' W 000°11'510.1
2017-May-16 05:30N 49°41' W 000°07'510.0
2017-May-16 05:00N 49°36' W 000°06'5 9.7
2017-May-16 04:30N 49°31' W 000°06'3 6.0
2017-May-16 03:58N 49°29' W 000°02'0 0.0
2017-May-16 03:28N 49°30' W 000°02'0 0.0
2017-May-16 02:58N 49°30' W 000°02'0 0.0
2017-May-16 02:28N 49°30' W 000°02'0 0.0
2017-May-16 01:58N 49°30' W 000°02'0 0.0
2017-May-16 01:28N 49°30' W 000°01'0 0.0
2017-May-16 00:58N 49°30' W 000°01'0 0.0
2017-May-16 00:28N 49°30' W 000°01'0 0.0
2017-May-15 23:58N 49°30' W 000°01'0 0.0
2017-May-15 23:28N 49°30' W 000°01'0 0.0
2017-May-15 22:58N 49°29' W 000°01'0 0.0
2017-May-15 22:28N 49°29' W 000°01'0 0.0
2017-May-15 21:58N 49°29' W 000°01'0 0.0
2017-May-15 21:28N 49°29' W 000°01'0 0.2
2017-May-15 20:58N 49°29' W 000°02'0 0.1
2017-May-15 20:28N 49°29' W 000°02'0 0.0
2017-May-15 19:58N 49°29' W 000°02'0 0.0
2017-May-15 19:28N 49°29' W 000°02'0 0.0
2017-May-15 18:58N 49°29' W 000°02'0 0.0
2017-May-15 18:28N 49°29' W 000°02'0 0.0
2017-May-15 17:58N 49°29' W 000°02'0 0.0
2017-May-15 17:28N 49°29' W 000°02'0 0.1
2017-May-15 16:58N 49°29' W 000°02'0 0.0
2017-May-15 16:28N 49°29' W 000°02'0 0.0
2017-May-15 15:58N 49°30' W 000°02'0 0.0
2017-May-15 15:28N 49°30' W 000°02'0 0.0
2017-May-15 14:58N 49°30' W 000°02'0 0.0
2017-May-15 14:28N 49°30' W 000°02'0 0.0
2017-May-15 13:28N 49°30' W 000°01'1 1.6
2017-May-15 13:00N 49°29' W 000°00'5 9.2
2017-May-15 12:30N 49°28' E 000°06'2 4.7
2017-May-15 11:59N 49°27' E 000°10'0 0.0
2017-May-15 11:29N 49°27' E 000°10'0 0.0
2017-May-15 10:59N 49°27' E 000°10'0 0.0
2017-May-15 10:29N 49°27' E 000°10'0 0.0
2017-May-15 09:59N 49°27' E 000°10'0 0.0
2017-May-15 09:26N 49°27' E 000°10'0 0.0
2017-May-15 08:59N 49°27' E 000°10'0 0.0
2017-May-15 08:29N 49°27' E 000°10'0 0.0
2017-May-15 07:59N 49°27' E 000°10'0 0.0
2017-May-15 07:29N 49°27' E 000°10'0 0.0
2017-May-15 06:59N 49°27' E 000°10'0 0.0
2017-May-15 06:29N 49°27' E 000°10'0 0.0
2017-May-15 05:59N 49°27' E 000°10'0 0.0
2017-May-15 05:29N 49°27' E 000°10'0 0.0
2017-May-15 04:59N 49°27' E 000°10'0 0.0
2017-May-15 04:29N 49°27' E 000°10'0 0.0
2017-May-15 03:59N 49°27' E 000°10'0 0.0
2017-May-15 03:29N 49°27' E 000°10'0 0.0
2017-May-15 02:59N 49°27' E 000°10'0 0.0
2017-May-15 02:30N 49°27' E 000°10'1 2.1
2017-May-15 02:00N 49°28' E 000°08'5 9.6
2017-May-15 01:30N 49°30' E 000°02'3 6.3
2017-May-15 01:00N 49°30' W 000°03'0 0.1
2017-May-15 00:28N 49°30' W 000°03'0 0.0
2017-May-14 23:58N 49°30' W 000°03'0 0.0
2017-May-14 23:28N 49°30' W 000°03'0 0.0
2017-May-14 22:58N 49°30' W 000°03'0 0.0
2017-May-14 22:28N 49°30' W 000°03'0 0.0
2017-May-14 21:55N 49°30' W 000°03'0 0.0
2017-May-14 21:28N 49°29' W 000°03'0 0.0
2017-May-14 20:58N 49°29' W 000°03'0 0.0
2017-May-14 20:28N 49°29' W 000°03'0 0.1
2017-May-14 19:58N 49°29' W 000°03'0 0.1
2017-May-14 19:28N 49°29' W 000°03'0 0.0
2017-May-14 18:55N 49°29' W 000°03'0 0.0
2017-May-14 18:28N 49°29' W 000°03'0 0.0
2017-May-14 17:58N 49°29' W 000°03'  

Dump ship's entire track history